sensor_id;sensor_type;location;lat;lon;timestamp;P1;durP1;ratioP1;P2;durP2;ratioP2
22113;SDS011;11223;49.968;9.062;2022-10-31T00:00:59;13.33;;;7.03;;
22113;SDS011;11223;49.968;9.062;2022-10-31T00:03:25;7.45;;;6.85;;
22113;SDS011;11223;49.968;9.062;2022-10-31T00:05:51;7.67;;;6.97;;
22113;SDS011;11223;49.968;9.062;2022-10-31T00:08:17;7.47;;;6.78;;
22113;SDS011;11223;49.968;9.062;2022-10-31T00:10:44;9.85;;;6.75;;
22113;SDS011;11223;49.968;9.062;2022-10-31T00:13:11;7.00;;;6.35;;
22113;SDS011;11223;49.968;9.062;2022-10-31T00:15:37;6.97;;;6.22;;
22113;SDS011;11223;49.968;9.062;2022-10-31T00:18:04;6.90;;;6.30;;
22113;SDS011;11223;49.968;9.062;2022-10-31T00:20:31;8.13;;;7.30;;
22113;SDS011;11223;49.968;9.062;2022-10-31T00:22:58;8.03;;;7.23;;
22113;SDS011;11223;49.968;9.062;2022-10-31T00:25:24;9.55;;;6.72;;
22113;SDS011;11223;49.968;9.062;2022-10-31T00:27:50;8.00;;;6.05;;
22113;SDS011;11223;49.968;9.062;2022-10-31T00:30:16;6.97;;;6.27;;
22113;SDS011;11223;49.968;9.062;2022-10-31T00:32:41;7.80;;;7.03;;
22113;SDS011;11223;49.968;9.062;2022-10-31T00:35:07;7.67;;;6.87;;
22113;SDS011;11223;49.968;9.062;2022-10-31T00:37:33;8.03;;;6.60;;
22113;SDS011;11223;49.968;9.062;2022-10-31T00:39:58;10.40;;;6.20;;
22113;SDS011;11223;49.968;9.062;2022-10-31T00:42:24;7.60;;;6.80;;
22113;SDS011;11223;49.968;9.062;2022-10-31T00:44:50;7.70;;;7.00;;
22113;SDS011;11223;49.968;9.062;2022-10-31T00:47:15;7.13;;;6.53;;
22113;SDS011;11223;49.968;9.062;2022-10-31T00:49:41;7.90;;;7.20;;
22113;SDS011;11223;49.968;9.062;2022-10-31T00:52:06;7.33;;;6.57;;
22113;SDS011;11223;49.968;9.062;2022-10-31T00:54:32;9.63;;;6.63;;
22113;SDS011;11223;49.968;9.062;2022-10-31T00:56:58;7.43;;;6.73;;
22113;SDS011;11223;49.968;9.062;2022-10-31T00:59:23;11.30;;;6.50;;
22113;SDS011;11223;49.968;9.062;2022-10-31T01:01:49;6.50;;;5.83;;
22113;SDS011;11223;49.968;9.062;2022-10-31T01:04:14;6.37;;;5.87;;
22113;SDS011;11223;49.968;9.062;2022-10-31T01:06:40;6.90;;;5.70;;
22113;SDS011;11223;49.968;9.062;2022-10-31T01:09:06;8.07;;;6.23;;
22113;SDS011;11223;49.968;9.062;2022-10-31T01:11:32;7.10;;;6.40;;
22113;SDS011;11223;49.968;9.062;2022-10-31T01:13:57;6.70;;;5.80;;
22113;SDS011;11223;49.968;9.062;2022-10-31T01:16:23;6.07;;;5.40;;
22113;SDS011;11223;49.968;9.062;2022-10-31T01:18:51;6.50;;;5.90;;
22113;SDS011;11223;49.968;9.062;2022-10-31T01:21:21;6.93;;;6.30;;
22113;SDS011;11223;49.968;9.062;2022-10-31T01:23:48;7.25;;;6.55;;
22113;SDS011;11223;49.968;9.062;2022-10-31T01:26:22;7.70;;;7.00;;
22113;SDS011;11223;49.968;9.062;2022-10-31T01:31:34;6.60;;;6.00;;
22113;SDS011;11223;49.968;9.062;2022-10-31T01:34:01;7.45;;;6.78;;
22113;SDS011;11223;49.968;9.062;2022-10-31T01:36:29;5.97;;;5.47;;
22113;SDS011;11223;49.968;9.062;2022-10-31T01:38:58;6.68;;;5.95;;
22113;SDS011;11223;49.968;9.062;2022-10-31T01:41:29;7.28;;;6.60;;
22113;SDS011;11223;49.968;9.062;2022-10-31T01:43:58;7.05;;;6.00;;
22113;SDS011;11223;49.968;9.062;2022-10-31T01:46:25;7.20;;;6.50;;
22113;SDS011;11223;49.968;9.062;2022-10-31T01:48:59;9.93;;;7.30;;
22113;SDS011;11223;49.968;9.062;2022-10-31T01:51:32;7.22;;;6.63;;
22113;SDS011;11223;49.968;9.062;2022-10-31T01:54:03;8.23;;;6.50;;
22113;SDS011;11223;49.968;9.062;2022-10-31T01:56:32;7.10;;;6.40;;
22113;SDS011;11223;49.968;9.062;2022-10-31T01:59:01;8.27;;;7.30;;
22113;SDS011;11223;49.968;9.062;2022-10-31T02:01:29;8.90;;;6.90;;
22113;SDS011;11223;49.968;9.062;2022-10-31T02:03:55;6.83;;;6.07;;
22113;SDS011;11223;49.968;9.062;2022-10-31T02:06:30;8.80;;;7.40;;
22113;SDS011;11223;49.968;9.062;2022-10-31T02:09:03;6.82;;;6.15;;
22113;SDS011;11223;49.968;9.062;2022-10-31T02:11:30;7.03;;;6.32;;
22113;SDS011;11223;49.968;9.062;2022-10-31T02:13:58;8.00;;;6.65;;
22113;SDS011;11223;49.968;9.062;2022-10-31T02:16:25;7.35;;;6.65;;
22113;SDS011;11223;49.968;9.062;2022-10-31T02:18:51;6.40;;;5.80;;
22113;SDS011;11223;49.968;9.062;2022-10-31T02:21:19;7.03;;;6.33;;
22113;SDS011;11223;49.968;9.062;2022-10-31T02:49:32;6.70;;;6.10;;
22113;SDS011;11223;49.968;9.062;2022-10-31T02:51:59;7.20;;;6.50;;
22113;SDS011;11223;49.968;9.062;2022-10-31T02:54:26;7.73;;;7.00;;
22113;SDS011;11223;49.968;9.062;2022-10-31T02:56:58;7.47;;;6.78;;
22113;SDS011;11223;49.968;9.062;2022-10-31T02:59:27;7.53;;;6.32;;
22113;SDS011;11223;49.968;9.062;2022-10-31T03:07:30;7.10;;;6.40;;
22113;SDS011;11223;49.968;9.062;2022-10-31T03:13:00;8.50;;;6.60;;
22113;SDS011;11223;49.968;9.062;2022-10-31T03:15:34;10.07;;;7.22;;
22113;SDS011;11223;49.968;9.062;2022-10-31T03:18:07;6.95;;;6.35;;
22113;SDS011;11223;49.968;9.062;2022-10-31T03:20:41;7.85;;;7.03;;
22113;SDS011;11223;49.968;9.062;2022-10-31T03:23:29;7.13;;;6.38;;
22113;SDS011;11223;49.968;9.062;2022-10-31T03:25:56;7.13;;;6.50;;
22113;SDS011;11223;49.968;9.062;2022-10-31T03:28:29;7.80;;;6.80;;
22113;SDS011;11223;49.968;9.062;2022-10-31T03:31:01;5.95;;;5.32;;
22113;SDS011;11223;49.968;9.062;2022-10-31T03:33:30;8.63;;;7.65;;
22113;SDS011;11223;49.968;9.062;2022-10-31T03:36:00;9.25;;;8.48;;
22113;SDS011;11223;49.968;9.062;2022-10-31T03:38:30;7.85;;;7.10;;
22113;SDS011;11223;49.968;9.062;2022-10-31T03:40:59;9.07;;;7.10;;
22113;SDS011;11223;49.968;9.062;2022-10-31T03:43:28;6.97;;;6.22;;
22113;SDS011;11223;49.968;9.062;2022-10-31T03:45:57;6.55;;;5.95;;
22113;SDS011;11223;49.968;9.062;2022-10-31T03:48:23;7.45;;;6.45;;
22113;SDS011;11223;49.968;9.062;2022-10-31T03:53:18;8.40;;;7.03;;
22113;SDS011;11223;49.968;9.062;2022-10-31T03:55:52;7.35;;;6.65;;
22113;SDS011;11223;49.968;9.062;2022-10-31T03:58:43;7.38;;;5.78;;
22113;SDS011;11223;49.968;9.062;2022-10-31T04:01:20;7.00;;;6.40;;
22113;SDS011;11223;49.968;9.062;2022-10-31T04:03:47;7.93;;;6.30;;
22113;SDS011;11223;49.968;9.062;2022-10-31T04:06:14;7.50;;;6.82;;
22113;SDS011;11223;49.968;9.062;2022-10-31T04:08:53;9.25;;;5.97;;
22113;SDS011;11223;49.968;9.062;2022-10-31T04:11:25;6.03;;;5.40;;
22113;SDS011;11223;49.968;9.062;2022-10-31T04:13:53;6.93;;;5.85;;
22113;SDS011;11223;49.968;9.062;2022-10-31T04:16:21;6.88;;;6.22;;
22113;SDS011;11223;49.968;9.062;2022-10-31T04:18:48;7.05;;;6.35;;
22113;SDS011;11223;49.968;9.062;2022-10-31T04:21:14;7.43;;;6.03;;
22113;SDS011;11223;49.968;9.062;2022-10-31T04:23:40;6.10;;;4.70;;
22113;SDS011;11223;49.968;9.062;2022-10-31T04:26:05;7.53;;;6.30;;
22113;SDS011;11223;49.968;9.062;2022-10-31T04:28:31;6.67;;;6.00;;
22113;SDS011;11223;49.968;9.062;2022-10-31T04:30:58;6.72;;;5.93;;
22113;SDS011;11223;49.968;9.062;2022-10-31T04:33:24;7.03;;;5.73;;
22113;SDS011;11223;49.968;9.062;2022-10-31T04:35:49;6.97;;;6.27;;
22113;SDS011;11223;49.968;9.062;2022-10-31T04:38:15;8.00;;;6.30;;
22113;SDS011;11223;49.968;9.062;2022-10-31T04:40:41;7.13;;;6.33;;
22113;SDS011;11223;49.968;9.062;2022-10-31T04:43:06;5.63;;;5.13;;
22113;SDS011;11223;49.968;9.062;2022-10-31T04:45:32;6.70;;;5.53;;
22113;SDS011;11223;49.968;9.062;2022-10-31T04:47:57;7.30;;;5.47;;
22113;SDS011;11223;49.968;9.062;2022-10-31T04:50:23;6.93;;;5.47;;
22113;SDS011;11223;49.968;9.062;2022-10-31T04:52:48;7.67;;;6.97;;
22113;SDS011;11223;49.968;9.062;2022-10-31T04:55:14;10.67;;;7.07;;
22113;SDS011;11223;49.968;9.062;2022-10-31T04:57:44;6.00;;;5.50;;
22113;SDS011;11223;49.968;9.062;2022-10-31T05:00:12;6.57;;;5.93;;
22113;SDS011;11223;49.968;9.062;2022-10-31T05:02:55;9.13;;;6.18;;
22113;SDS011;11223;49.968;9.062;2022-10-31T05:05:23;6.70;;;5.13;;
22113;SDS011;11223;49.968;9.062;2022-10-31T05:07:51;6.60;;;6.00;;
22113;SDS011;11223;49.968;9.062;2022-10-31T05:10:21;6.30;;;5.60;;
22113;SDS011;11223;49.968;9.062;2022-10-31T05:12:49;6.65;;;6.10;;
22113;SDS011;11223;49.968;9.062;2022-10-31T05:15:17;10.27;;;6.68;;
22113;SDS011;11223;49.968;9.062;2022-10-31T05:17:43;5.55;;;5.10;;
22113;SDS011;11223;49.968;9.062;2022-10-31T05:20:10;6.30;;;5.70;;
22113;SDS011;11223;49.968;9.062;2022-10-31T05:22:36;6.22;;;5.72;;
22113;SDS011;11223;49.968;9.062;2022-10-31T05:25:02;8.60;;;6.00;;
22113;SDS011;11223;49.968;9.062;2022-10-31T05:27:28;6.38;;;5.78;;
22113;SDS011;11223;49.968;9.062;2022-10-31T05:29:54;5.40;;;4.60;;
22113;SDS011;11223;49.968;9.062;2022-10-31T05:32:19;5.87;;;5.37;;
22113;SDS011;11223;49.968;9.062;2022-10-31T05:34:45;5.30;;;4.73;;
22113;SDS011;11223;49.968;9.062;2022-10-31T05:37:10;6.03;;;5.27;;
22113;SDS011;11223;49.968;9.062;2022-10-31T05:39:36;5.13;;;4.63;;
22113;SDS011;11223;49.968;9.062;2022-10-31T05:42:01;5.43;;;4.93;;
22113;SDS011;11223;49.968;9.062;2022-10-31T05:44:27;6.10;;;4.90;;
22113;SDS011;11223;49.968;9.062;2022-10-31T05:46:53;6.43;;;5.47;;
22113;SDS011;11223;49.968;9.062;2022-10-31T05:49:18;7.03;;;5.77;;
22113;SDS011;11223;49.968;9.062;2022-10-31T05:51:44;6.83;;;5.13;;
22113;SDS011;11223;49.968;9.062;2022-10-31T05:54:10;6.43;;;5.27;;
22113;SDS011;11223;49.968;9.062;2022-10-31T05:56:35;6.00;;;5.53;;
22113;SDS011;11223;49.968;9.062;2022-10-31T05:59:01;5.57;;;4.90;;
22113;SDS011;11223;49.968;9.062;2022-10-31T06:01:26;7.37;;;5.93;;
22113;SDS011;11223;49.968;9.062;2022-10-31T06:03:52;6.07;;;5.53;;
22113;SDS011;11223;49.968;9.062;2022-10-31T06:06:17;6.10;;;5.50;;
22113;SDS011;11223;49.968;9.062;2022-10-31T06:08:43;5.93;;;5.43;;
22113;SDS011;11223;49.968;9.062;2022-10-31T06:11:09;5.60;;;5.07;;
22113;SDS011;11223;49.968;9.062;2022-10-31T06:13:34;6.93;;;5.80;;
22113;SDS011;11223;49.968;9.062;2022-10-31T06:16:00;7.23;;;5.73;;
22113;SDS011;11223;49.968;9.062;2022-10-31T06:18:25;5.73;;;5.13;;
22113;SDS011;11223;49.968;9.062;2022-10-31T06:20:51;6.53;;;5.33;;
22113;SDS011;11223;49.968;9.062;2022-10-31T06:23:16;6.30;;;5.80;;
22113;SDS011;11223;49.968;9.062;2022-10-31T06:25:42;7.57;;;6.80;;
22113;SDS011;11223;49.968;9.062;2022-10-31T06:28:08;6.40;;;5.30;;
22113;SDS011;11223;49.968;9.062;2022-10-31T06:30:33;5.73;;;5.07;;
22113;SDS011;11223;49.968;9.062;2022-10-31T06:33:02;6.20;;;5.43;;
22113;SDS011;11223;49.968;9.062;2022-10-31T06:35:29;5.80;;;4.70;;
22113;SDS011;11223;49.968;9.062;2022-10-31T06:37:54;6.07;;;5.47;;
22113;SDS011;11223;49.968;9.062;2022-10-31T06:40:20;5.07;;;4.57;;
22113;SDS011;11223;49.968;9.062;2022-10-31T06:42:46;6.70;;;6.10;;
22113;SDS011;11223;49.968;9.062;2022-10-31T06:45:12;6.33;;;5.83;;
22113;SDS011;11223;49.968;9.062;2022-10-31T06:47:38;6.50;;;6.00;;
22113;SDS011;11223;49.968;9.062;2022-10-31T06:50:03;6.47;;;5.43;;
22113;SDS011;11223;49.968;9.062;2022-10-31T06:52:29;6.55;;;6.03;;
22113;SDS011;11223;49.968;9.062;2022-10-31T06:54:55;6.30;;;5.70;;
22113;SDS011;11223;49.968;9.062;2022-10-31T06:57:20;5.37;;;4.83;;
22113;SDS011;11223;49.968;9.062;2022-10-31T06:59:46;6.30;;;5.70;;
22113;SDS011;11223;49.968;9.062;2022-10-31T07:02:12;6.07;;;5.57;;
22113;SDS011;11223;49.968;9.062;2022-10-31T07:04:37;7.67;;;6.57;;
22113;SDS011;11223;49.968;9.062;2022-10-31T07:07:03;6.70;;;6.00;;
22113;SDS011;11223;49.968;9.062;2022-10-31T07:09:28;6.20;;;5.60;;
22113;SDS011;11223;49.968;9.062;2022-10-31T07:11:54;6.50;;;5.90;;
22113;SDS011;11223;49.968;9.062;2022-10-31T07:14:20;6.87;;;6.00;;
22113;SDS011;11223;49.968;9.062;2022-10-31T07:16:49;6.60;;;6.00;;
22113;SDS011;11223;49.968;9.062;2022-10-31T07:19:15;7.07;;;6.38;;
22113;SDS011;11223;49.968;9.062;2022-10-31T07:21:41;6.70;;;6.10;;
22113;SDS011;11223;49.968;9.062;2022-10-31T07:24:06;7.37;;;6.40;;
22113;SDS011;11223;49.968;9.062;2022-10-31T07:26:32;8.00;;;6.70;;
22113;SDS011;11223;49.968;9.062;2022-10-31T07:28:58;8.23;;;7.40;;
22113;SDS011;11223;49.968;9.062;2022-10-31T07:31:24;6.80;;;6.18;;
22113;SDS011;11223;49.968;9.062;2022-10-31T07:33:50;6.43;;;5.82;;
22113;SDS011;11223;49.968;9.062;2022-10-31T07:36:16;7.27;;;6.33;;
22113;SDS011;11223;49.968;9.062;2022-10-31T07:38:42;8.00;;;6.80;;
22113;SDS011;11223;49.968;9.062;2022-10-31T07:41:07;7.27;;;6.43;;
22113;SDS011;11223;49.968;9.062;2022-10-31T07:43:34;6.13;;;5.63;;
22113;SDS011;11223;49.968;9.062;2022-10-31T07:46:00;9.00;;;5.47;;
22113;SDS011;11223;49.968;9.062;2022-10-31T07:48:25;7.40;;;6.70;;
22113;SDS011;11223;49.968;9.062;2022-10-31T07:50:51;5.90;;;5.47;;
22113;SDS011;11223;49.968;9.062;2022-10-31T07:53:16;5.20;;;4.80;;
22113;SDS011;11223;49.968;9.062;2022-10-31T07:55:42;6.57;;;5.53;;
22113;SDS011;11223;49.968;9.062;2022-10-31T07:58:09;6.10;;;5.28;;
22113;SDS011;11223;49.968;9.062;2022-10-31T08:00:37;6.13;;;5.60;;
22113;SDS011;11223;49.968;9.062;2022-10-31T08:03:05;7.18;;;6.47;;
22113;SDS011;11223;49.968;9.062;2022-10-31T08:05:32;5.82;;;5.25;;
22113;SDS011;11223;49.968;9.062;2022-10-31T08:07:59;5.93;;;5.25;;
22113;SDS011;11223;49.968;9.062;2022-10-31T08:10:25;5.47;;;4.50;;
22113;SDS011;11223;49.968;9.062;2022-10-31T08:12:58;5.65;;;4.85;;
22113;SDS011;11223;49.968;9.062;2022-10-31T08:15:26;5.75;;;4.47;;
22113;SDS011;11223;49.968;9.062;2022-10-31T08:17:52;4.28;;;3.88;;
22113;SDS011;11223;49.968;9.062;2022-10-31T08:20:18;4.40;;;4.00;;
22113;SDS011;11223;49.968;9.062;2022-10-31T08:22:52;4.50;;;4.10;;
22113;SDS011;11223;49.968;9.062;2022-10-31T08:25:21;4.50;;;3.88;;
22113;SDS011;11223;49.968;9.062;2022-10-31T08:27:48;6.95;;;4.78;;
22113;SDS011;11223;49.968;9.062;2022-10-31T08:30:18;4.20;;;3.90;;
22113;SDS011;11223;49.968;9.062;2022-10-31T08:32:45;5.97;;;4.82;;
22113;SDS011;11223;49.968;9.062;2022-10-31T08:35:11;4.35;;;3.55;;
22113;SDS011;11223;49.968;9.062;2022-10-31T08:37:37;4.73;;;4.30;;
22113;SDS011;11223;49.968;9.062;2022-10-31T08:40:03;7.47;;;3.73;;
22113;SDS011;11223;49.968;9.062;2022-10-31T08:42:29;7.45;;;4.00;;
22113;SDS011;11223;49.968;9.062;2022-10-31T08:44:54;6.73;;;4.30;;
22113;SDS011;11223;49.968;9.062;2022-10-31T08:47:20;5.53;;;3.63;;
22113;SDS011;11223;49.968;9.062;2022-10-31T08:49:46;4.80;;;3.90;;
22113;SDS011;11223;49.968;9.062;2022-10-31T08:52:11;3.80;;;3.50;;
22113;SDS011;11223;49.968;9.062;2022-10-31T08:54:37;6.00;;;4.10;;
22113;SDS011;11223;49.968;9.062;2022-10-31T08:57:02;5.30;;;4.53;;
22113;SDS011;11223;49.968;9.062;2022-10-31T08:59:28;6.00;;;4.00;;
22113;SDS011;11223;49.968;9.062;2022-10-31T09:01:53;6.30;;;3.87;;
22113;SDS011;11223;49.968;9.062;2022-10-31T09:04:19;5.07;;;4.03;;
22113;SDS011;11223;49.968;9.062;2022-10-31T09:06:45;5.50;;;4.37;;
22113;SDS011;11223;49.968;9.062;2022-10-31T09:09:10;6.87;;;3.50;;
22113;SDS011;11223;49.968;9.062;2022-10-31T09:11:36;4.67;;;4.27;;
22113;SDS011;11223;49.968;9.062;2022-10-31T09:14:01;4.33;;;3.77;;
22113;SDS011;11223;49.968;9.062;2022-10-31T09:16:27;6.40;;;3.80;;
22113;SDS011;11223;49.968;9.062;2022-10-31T09:18:52;5.40;;;3.57;;
22113;SDS011;11223;49.968;9.062;2022-10-31T09:21:18;6.00;;;3.83;;
22113;SDS011;11223;49.968;9.062;2022-10-31T09:23:44;3.73;;;3.40;;
22113;SDS011;11223;49.968;9.062;2022-10-31T09:26:09;4.93;;;3.80;;
22113;SDS011;11223;49.968;9.062;2022-10-31T09:28:35;5.03;;;3.10;;
22113;SDS011;11223;49.968;9.062;2022-10-31T09:31:00;5.30;;;3.23;;
22113;SDS011;11223;49.968;9.062;2022-10-31T09:33:26;4.97;;;3.10;;
22113;SDS011;11223;49.968;9.062;2022-10-31T09:35:51;4.83;;;3.40;;
22113;SDS011;11223;49.968;9.062;2022-10-31T09:38:18;5.80;;;3.20;;
22113;SDS011;11223;49.968;9.062;2022-10-31T09:43:21;3.85;;;3.15;;
22113;SDS011;11223;49.968;9.062;2022-10-31T09:48:27;5.75;;;3.83;;
22113;SDS011;11223;49.968;9.062;2022-10-31T09:54:12;6.65;;;3.80;;
22113;SDS011;11223;49.968;9.062;2022-10-31T09:56:42;4.70;;;4.07;;
22113;SDS011;11223;49.968;9.062;2022-10-31T09:59:15;4.38;;;3.35;;
22113;SDS011;11223;49.968;9.062;2022-10-31T10:04:22;3.72;;;3.42;;
22113;SDS011;11223;49.968;9.062;2022-10-31T10:06:53;3.83;;;3.42;;
22113;SDS011;11223;49.968;9.062;2022-10-31T10:09:20;4.20;;;2.83;;
22113;SDS011;11223;49.968;9.062;2022-10-31T10:20:31;3.67;;;3.25;;
22113;SDS011;11223;49.968;9.062;2022-10-31T10:26:19;8.52;;;4.55;;
22113;SDS011;11223;49.968;9.062;2022-10-31T10:28:48;4.95;;;3.53;;
22113;SDS011;11223;49.968;9.062;2022-10-31T10:31:20;10.07;;;3.30;;
22113;SDS011;11223;49.968;9.062;2022-10-31T10:34:10;3.80;;;3.40;;
22113;SDS011;11223;49.968;9.062;2022-10-31T10:39:17;4.35;;;3.80;;
22113;SDS011;11223;49.968;9.062;2022-10-31T10:41:48;3.78;;;3.10;;
22113;SDS011;11223;49.968;9.062;2022-10-31T10:44:34;3.80;;;3.38;;
22113;SDS011;11223;49.968;9.062;2022-10-31T10:47:27;4.55;;;3.50;;
22113;SDS011;11223;49.968;9.062;2022-10-31T10:50:15;6.53;;;4.55;;
22113;SDS011;11223;49.968;9.062;2022-10-31T10:53:01;4.65;;;3.40;;
22113;SDS011;11223;49.968;9.062;2022-10-31T10:58:40;3.40;;;3.10;;
22113;SDS011;11223;49.968;9.062;2022-10-31T11:01:11;3.58;;;3.10;;
22113;SDS011;11223;49.968;9.062;2022-10-31T11:03:38;4.05;;;3.65;;
22113;SDS011;11223;49.968;9.062;2022-10-31T11:06:15;5.25;;;3.80;;
22113;SDS011;11223;49.968;9.062;2022-10-31T11:08:47;4.55;;;3.38;;
22113;SDS011;11223;49.968;9.062;2022-10-31T11:13:42;5.32;;;3.20;;
22113;SDS011;11223;49.968;9.062;2022-10-31T11:16:12;4.82;;;3.28;;
22113;SDS011;11223;49.968;9.062;2022-10-31T11:18:45;4.25;;;3.80;;
22113;SDS011;11223;49.968;9.062;2022-10-31T11:21:20;3.60;;;3.30;;
22113;SDS011;11223;49.968;9.062;2022-10-31T11:23:50;4.32;;;3.72;;
22113;SDS011;11223;49.968;9.062;2022-10-31T11:26:36;6.40;;;3.67;;
22113;SDS011;11223;49.968;9.062;2022-10-31T11:29:03;6.25;;;3.72;;
22113;SDS011;11223;49.968;9.062;2022-10-31T11:31:30;6.22;;;3.92;;
22113;SDS011;11223;49.968;9.062;2022-10-31T11:34:00;7.75;;;4.72;;
22113;SDS011;11223;49.968;9.062;2022-10-31T11:36:38;4.45;;;3.60;;
22113;SDS011;11223;49.968;9.062;2022-10-31T11:39:13;5.45;;;3.45;;
22113;SDS011;11223;49.968;9.062;2022-10-31T11:41:45;4.70;;;3.40;;
22113;SDS011;11223;49.968;9.062;2022-10-31T11:44:19;4.28;;;3.78;;
22113;SDS011;11223;49.968;9.062;2022-10-31T11:46:49;4.13;;;3.05;;
22113;SDS011;11223;49.968;9.062;2022-10-31T11:49:32;5.32;;;4.03;;
22113;SDS011;11223;49.968;9.062;2022-10-31T11:52:25;8.48;;;3.75;;
22113;SDS011;11223;49.968;9.062;2022-10-31T11:55:02;5.93;;;3.10;;
22113;SDS011;11223;49.968;9.062;2022-10-31T11:57:45;5.88;;;4.00;;
22113;SDS011;11223;49.968;9.062;2022-10-31T12:00:55;4.43;;;3.92;;
22113;SDS011;11223;49.968;9.062;2022-10-31T12:06:05;4.45;;;3.88;;
22113;SDS011;11223;49.968;9.062;2022-10-31T12:08:45;5.53;;;3.63;;
22113;SDS011;11223;49.968;9.062;2022-10-31T12:11:31;6.88;;;3.90;;
22113;SDS011;11223;49.968;9.062;2022-10-31T12:25:15;5.05;;;3.63;;
22113;SDS011;11223;49.968;9.062;2022-10-31T12:31:01;4.45;;;3.42;;
22113;SDS011;11223;49.968;9.062;2022-10-31T12:47:54;7.57;;;6.50;;
22113;SDS011;11223;49.968;9.062;2022-10-31T12:59:22;10.10;;;8.95;;
22113;SDS011;11223;49.968;9.062;2022-10-31T13:01:56;9.18;;;8.13;;
22113;SDS011;11223;49.968;9.062;2022-10-31T13:04:43;10.75;;;9.10;;
22113;SDS011;11223;49.968;9.062;2022-10-31T13:07:24;9.50;;;7.75;;
22113;SDS011;11223;49.968;9.062;2022-10-31T13:12:26;11.55;;;9.10;;
22113;SDS011;11223;49.968;9.062;2022-10-31T13:14:56;11.77;;;9.25;;
22113;SDS011;11223;49.968;9.062;2022-10-31T13:17:35;9.70;;;8.00;;
22113;SDS011;11223;49.968;9.062;2022-10-31T13:23:10;10.20;;;7.88;;
22113;SDS011;11223;49.968;9.062;2022-10-31T13:25:40;9.40;;;8.18;;
22113;SDS011;11223;49.968;9.062;2022-10-31T13:28:28;9.05;;;7.72;;
22113;SDS011;11223;49.968;9.062;2022-10-31T13:31:00;12.30;;;7.60;;
22113;SDS011;11223;49.968;9.062;2022-10-31T13:33:30;10.70;;;6.77;;
22113;SDS011;11223;49.968;9.062;2022-10-31T13:36:05;9.10;;;6.85;;
22113;SDS011;11223;49.968;9.062;2022-10-31T13:38:39;8.82;;;7.07;;
22113;SDS011;11223;49.968;9.062;2022-10-31T13:44:00;7.65;;;6.40;;
22113;SDS011;11223;49.968;9.062;2022-10-31T13:48:58;9.48;;;6.35;;
22113;SDS011;11223;49.968;9.062;2022-10-31T13:51:28;8.82;;;6.45;;
22113;SDS011;11223;49.968;9.062;2022-10-31T13:53:57;11.48;;;7.13;;
22113;SDS011;11223;49.968;9.062;2022-10-31T13:56:26;11.27;;;8.05;;
22113;SDS011;11223;49.968;9.062;2022-10-31T13:58:59;9.65;;;7.30;;
22113;SDS011;11223;49.968;9.062;2022-10-31T14:01:25;7.90;;;6.25;;
22113;SDS011;11223;49.968;9.062;2022-10-31T14:04:06;8.60;;;7.80;;
22113;SDS011;11223;49.968;9.062;2022-10-31T14:06:44;9.85;;;7.53;;
22113;SDS011;11223;49.968;9.062;2022-10-31T14:09:38;12.32;;;7.43;;
22113;SDS011;11223;49.968;9.062;2022-10-31T14:12:36;8.98;;;7.78;;
22113;SDS011;11223;49.968;9.062;2022-10-31T14:15:15;9.32;;;8.15;;
22113;SDS011;11223;49.968;9.062;2022-10-31T14:17:57;12.07;;;8.75;;
22113;SDS011;11223;49.968;9.062;2022-10-31T14:20:36;14.02;;;9.57;;
22113;SDS011;11223;49.968;9.062;2022-10-31T14:26:16;11.32;;;7.88;;
22113;SDS011;11223;49.968;9.062;2022-10-31T14:28:44;9.88;;;8.65;;
22113;SDS011;11223;49.968;9.062;2022-10-31T14:31:27;13.70;;;8.38;;
22113;SDS011;11223;49.968;9.062;2022-10-31T14:33:56;8.25;;;7.35;;
22113;SDS011;11223;49.968;9.062;2022-10-31T14:36:24;10.57;;;7.70;;
22113;SDS011;11223;49.968;9.062;2022-10-31T14:39:21;9.75;;;7.78;;
22113;SDS011;11223;49.968;9.062;2022-10-31T14:42:08;9.77;;;7.13;;
22113;SDS011;11223;49.968;9.062;2022-10-31T14:45:15;10.18;;;7.78;;
22113;SDS011;11223;49.968;9.062;2022-10-31T14:51:01;10.85;;;6.65;;
22113;SDS011;11223;49.968;9.062;2022-10-31T14:53:50;7.47;;;6.68;;
22113;SDS011;11223;49.968;9.062;2022-10-31T14:56:20;6.13;;;5.53;;
22113;SDS011;11223;49.968;9.062;2022-10-31T14:58:51;6.85;;;6.13;;
22113;SDS011;11223;49.968;9.062;2022-10-31T15:04:00;7.15;;;6.25;;
22113;SDS011;11223;49.968;9.062;2022-10-31T15:06:48;9.38;;;7.30;;
22113;SDS011;11223;49.968;9.062;2022-10-31T15:09:24;8.80;;;7.18;;
22113;SDS011;11223;49.968;9.062;2022-10-31T15:11:52;9.00;;;6.40;;
22113;SDS011;11223;49.968;9.062;2022-10-31T15:14:25;6.50;;;5.83;;
22113;SDS011;11223;49.968;9.062;2022-10-31T15:16:52;8.70;;;6.22;;
22113;SDS011;11223;49.968;9.062;2022-10-31T15:19:23;8.07;;;6.38;;
22113;SDS011;11223;49.968;9.062;2022-10-31T15:21:52;7.32;;;6.30;;
22113;SDS011;11223;49.968;9.062;2022-10-31T15:24:19;7.53;;;6.22;;
22113;SDS011;11223;49.968;9.062;2022-10-31T15:26:47;7.20;;;6.50;;
22113;SDS011;11223;49.968;9.062;2022-10-31T15:29:19;11.43;;;6.70;;
22113;SDS011;11223;49.968;9.062;2022-10-31T15:34:50;6.22;;;5.60;;
22113;SDS011;11223;49.968;9.062;2022-10-31T15:37:20;7.10;;;6.20;;
22113;SDS011;11223;49.968;9.062;2022-10-31T15:39:49;9.88;;;6.30;;
22113;SDS011;11223;49.968;9.062;2022-10-31T15:42:17;8.90;;;5.43;;
22113;SDS011;11223;49.968;9.062;2022-10-31T15:44:44;7.20;;;6.50;;
22113;SDS011;11223;49.968;9.062;2022-10-31T15:47:21;6.80;;;6.10;;
22113;SDS011;11223;49.968;9.062;2022-10-31T15:49:52;6.38;;;5.63;;
22113;SDS011;11223;49.968;9.062;2022-10-31T15:52:31;9.40;;;5.53;;
22113;SDS011;11223;49.968;9.062;2022-10-31T15:55:18;6.03;;;5.40;;
22113;SDS011;11223;49.968;9.062;2022-10-31T15:57:46;6.03;;;5.43;;
22113;SDS011;11223;49.968;9.062;2022-10-31T16:00:48;5.50;;;5.00;;
22113;SDS011;11223;49.968;9.062;2022-10-31T16:03:21;6.10;;;5.53;;
22113;SDS011;11223;49.968;9.062;2022-10-31T16:05:58;7.75;;;6.10;;
22113;SDS011;11223;49.968;9.062;2022-10-31T16:10:56;5.28;;;4.70;;
22113;SDS011;11223;49.968;9.062;2022-10-31T16:13:33;10.30;;;6.15;;
22113;SDS011;11223;49.968;9.062;2022-10-31T16:16:02;6.03;;;5.40;;
22113;SDS011;11223;49.968;9.062;2022-10-31T16:18:36;6.78;;;5.35;;
22113;SDS011;11223;49.968;9.062;2022-10-31T16:21:03;9.93;;;6.45;;
22113;SDS011;11223;49.968;9.062;2022-10-31T16:23:30;6.90;;;5.90;;
22113;SDS011;11223;49.968;9.062;2022-10-31T16:25:56;8.60;;;7.30;;
22113;SDS011;11223;49.968;9.062;2022-10-31T16:28:23;8.30;;;6.87;;
22113;SDS011;11223;49.968;9.062;2022-10-31T16:30:51;6.82;;;5.55;;
22113;SDS011;11223;49.968;9.062;2022-10-31T16:33:28;7.20;;;6.50;;
22113;SDS011;11223;49.968;9.062;2022-10-31T16:35:58;9.50;;;8.60;;
22113;SDS011;11223;49.968;9.062;2022-10-31T16:38:27;12.05;;;10.90;;
22113;SDS011;11223;49.968;9.062;2022-10-31T16:40:52;10.97;;;9.90;;
22113;SDS011;11223;49.968;9.062;2022-10-31T16:43:19;9.27;;;8.23;;
22113;SDS011;11223;49.968;9.062;2022-10-31T16:45:50;9.70;;;8.70;;
22113;SDS011;11223;49.968;9.062;2022-10-31T16:48:18;10.40;;;9.25;;
22113;SDS011;11223;49.968;9.062;2022-10-31T16:50:46;11.30;;;9.73;;
22113;SDS011;11223;49.968;9.062;2022-10-31T16:53:13;11.25;;;10.23;;
22113;SDS011;11223;49.968;9.062;2022-10-31T16:56:02;10.40;;;9.45;;
22113;SDS011;11223;49.968;9.062;2022-10-31T16:58:28;25.45;;;17.13;;
22113;SDS011;11223;49.968;9.062;2022-10-31T17:00:58;13.23;;;11.85;;
22113;SDS011;11223;49.968;9.062;2022-10-31T17:03:25;14.38;;;12.60;;
22113;SDS011;11223;49.968;9.062;2022-10-31T17:05:52;13.55;;;10.88;;
22113;SDS011;11223;49.968;9.062;2022-10-31T17:08:20;36.97;;;20.35;;
22113;SDS011;11223;49.968;9.062;2022-10-31T17:10:45;67.27;;;35.57;;
22113;SDS011;11223;49.968;9.062;2022-10-31T17:13:25;51.13;;;27.90;;
22113;SDS011;11223;49.968;9.062;2022-10-31T17:15:54;31.58;;;21.95;;
22113;SDS011;11223;49.968;9.062;2022-10-31T17:21:34;11.77;;;8.40;;